sensor_id;sensor_type;location;lat;lon;timestamp;P1;durP1;ratioP1;P2;durP2;ratioP2
73023;SDS011;61199;47.526;8.538;2022-09-25T00:01:48;21.90;;;11.80;;
73023;SDS011;61199;47.526;8.538;2022-09-25T00:04:15;19.50;;;11.70;;
73023;SDS011;61199;47.526;8.538;2022-09-25T00:06:41;20.33;;;12.80;;
73023;SDS011;61199;47.526;8.538;2022-09-25T00:09:07;21.67;;;12.60;;
73023;SDS011;61199;47.526;8.538;2022-09-25T00:11:35;23.43;;;13.90;;
73023;SDS011;61199;47.526;8.538;2022-09-25T00:14:03;23.40;;;13.20;;
73023;SDS011;61199;47.526;8.538;2022-09-25T00:16:30;24.73;;;14.87;;
73023;SDS011;61199;47.526;8.538;2022-09-25T00:18:58;26.50;;;14.37;;
73023;SDS011;61199;47.526;8.538;2022-09-25T00:22:05;23.67;;;14.60;;
73023;SDS011;61199;47.526;8.538;2022-09-25T00:24:33;32.20;;;18.13;;
73023;SDS011;61199;47.526;8.538;2022-09-25T00:26:59;27.57;;;16.63;;
73023;SDS011;61199;47.526;8.538;2022-09-25T00:29:26;28.70;;;17.20;;
73023;SDS011;61199;47.526;8.538;2022-09-25T00:31:53;29.03;;;16.63;;
73023;SDS011;61199;47.526;8.538;2022-09-25T00:34:20;24.63;;;15.63;;
73023;SDS011;61199;47.526;8.538;2022-09-25T00:36:47;24.73;;;15.67;;
73023;SDS011;61199;47.526;8.538;2022-09-25T00:39:13;84.90;;;18.70;;
73023;SDS011;61199;47.526;8.538;2022-09-25T00:41:40;37.53;;;15.80;;
73023;SDS011;61199;47.526;8.538;2022-09-25T00:44:42;38.33;;;16.67;;
73023;SDS011;61199;47.526;8.538;2022-09-25T00:47:19;39.13;;;16.47;;
73023;SDS011;61199;47.526;8.538;2022-09-25T00:50:16;44.93;;;16.70;;
73023;SDS011;61199;47.526;8.538;2022-09-25T00:53:01;66.37;;;17.20;;
73023;SDS011;61199;47.526;8.538;2022-09-25T00:55:34;29.50;;;16.23;;
73023;SDS011;61199;47.526;8.538;2022-09-25T00:58:03;29.93;;;17.00;;
73023;SDS011;61199;47.526;8.538;2022-09-25T01:00:31;34.93;;;16.80;;
73023;SDS011;61199;47.526;8.538;2022-09-25T01:02:58;27.97;;;15.83;;
73023;SDS011;61199;47.526;8.538;2022-09-25T01:05:27;34.33;;;17.10;;
73023;SDS011;61199;47.526;8.538;2022-09-25T01:07:57;32.10;;;16.43;;
73023;SDS011;61199;47.526;8.538;2022-09-25T01:10:26;32.47;;;18.80;;
73023;SDS011;61199;47.526;8.538;2022-09-25T01:12:53;31.97;;;17.73;;
73023;SDS011;61199;47.526;8.538;2022-09-25T01:15:41;28.70;;;16.10;;
73023;SDS011;61199;47.526;8.538;2022-09-25T01:24:15;27.40;;;15.83;;
73023;SDS011;61199;47.526;8.538;2022-09-25T01:27:03;23.73;;;15.10;;
73023;SDS011;61199;47.526;8.538;2022-09-25T01:30:23;23.67;;;15.17;;
73023;SDS011;61199;47.526;8.538;2022-09-25T01:32:57;26.37;;;14.50;;
73023;SDS011;61199;47.526;8.538;2022-09-25T01:35:44;23.90;;;13.83;;
73023;SDS011;61199;47.526;8.538;2022-09-25T01:41:09;40.67;;;14.27;;
73023;SDS011;61199;47.526;8.538;2022-09-25T01:43:42;22.30;;;15.07;;
73023;SDS011;61199;47.526;8.538;2022-09-25T01:46:15;20.40;;;12.13;;
73023;SDS011;61199;47.526;8.538;2022-09-25T01:48:48;24.87;;;15.50;;
73023;SDS011;61199;47.526;8.538;2022-09-25T01:51:24;30.20;;;15.40;;
73023;SDS011;61199;47.526;8.538;2022-09-25T01:53:55;26.90;;;15.20;;
73023;SDS011;61199;47.526;8.538;2022-09-25T01:56:31;26.03;;;15.33;;
73023;SDS011;61199;47.526;8.538;2022-09-25T01:59:15;31.67;;;16.00;;
73023;SDS011;61199;47.526;8.538;2022-09-25T02:01:43;35.00;;;18.03;;
73023;SDS011;61199;47.526;8.538;2022-09-25T02:06:47;31.97;;;17.20;;
73023;SDS011;61199;47.526;8.538;2022-09-25T02:10:19;41.60;;;18.40;;
73023;SDS011;61199;47.526;8.538;2022-09-25T02:12:18;28.83;;;17.20;;
73023;SDS011;61199;47.526;8.538;2022-09-25T02:14:56;32.70;;;18.50;;
73023;SDS011;61199;47.526;8.538;2022-09-25T02:17:28;38.20;;;19.20;;
73023;SDS011;61199;47.526;8.538;2022-09-25T02:20:19;32.17;;;18.23;;
73023;SDS011;61199;47.526;8.538;2022-09-25T02:26:15;27.40;;;16.30;;
73023;SDS011;61199;47.526;8.538;2022-09-25T02:28:49;38.67;;;18.83;;
73023;SDS011;61199;47.526;8.538;2022-09-25T02:31:19;38.50;;;17.87;;
73023;SDS011;61199;47.526;8.538;2022-09-25T02:33:48;30.23;;;16.77;;
73023;SDS011;61199;47.526;8.538;2022-09-25T02:36:19;34.60;;;17.80;;
73023;SDS011;61199;47.526;8.538;2022-09-25T02:38:47;27.87;;;15.13;;
73023;SDS011;61199;47.526;8.538;2022-09-25T02:41:17;32.53;;;15.73;;
73023;SDS011;61199;47.526;8.538;2022-09-25T02:47:02;20.40;;;13.03;;
73023;SDS011;61199;47.526;8.538;2022-09-25T02:54:39;23.00;;;12.00;;
73023;SDS011;61199;47.526;8.538;2022-09-25T02:57:20;19.27;;;12.53;;
73023;SDS011;61199;47.526;8.538;2022-09-25T02:59:51;22.27;;;14.13;;
73023;SDS011;61199;47.526;8.538;2022-09-25T03:02:21;19.80;;;12.87;;
73023;SDS011;61199;47.526;8.538;2022-09-25T03:04:50;25.07;;;13.57;;
73023;SDS011;61199;47.526;8.538;2022-09-25T03:07:17;33.63;;;13.13;;
73023;SDS011;61199;47.526;8.538;2022-09-25T03:09:45;19.77;;;12.67;;
73023;SDS011;61199;47.526;8.538;2022-09-25T03:12:14;24.93;;;15.23;;
73023;SDS011;61199;47.526;8.538;2022-09-25T03:14:41;21.97;;;14.00;;
73023;SDS011;61199;47.526;8.538;2022-09-25T03:17:08;24.87;;;15.30;;
73023;SDS011;61199;47.526;8.538;2022-09-25T03:19:36;22.67;;;13.77;;
73023;SDS011;61199;47.526;8.538;2022-09-25T03:22:03;23.00;;;14.90;;
73023;SDS011;61199;47.526;8.538;2022-09-25T03:24:30;26.00;;;14.90;;
73023;SDS011;61199;47.526;8.538;2022-09-25T03:26:56;22.33;;;14.10;;
73023;SDS011;61199;47.526;8.538;2022-09-25T03:29:22;26.53;;;14.90;;
73023;SDS011;61199;47.526;8.538;2022-09-25T03:31:49;22.37;;;14.23;;
73023;SDS011;61199;47.526;8.538;2022-09-25T03:34:17;25.43;;;15.17;;
73023;SDS011;61199;47.526;8.538;2022-09-25T03:36:44;25.20;;;13.90;;
73023;SDS011;61199;47.526;8.538;2022-09-25T03:39:16;26.47;;;15.80;;
73023;SDS011;61199;47.526;8.538;2022-09-25T03:41:45;29.83;;;15.60;;
73023;SDS011;61199;47.526;8.538;2022-09-25T03:44:12;25.90;;;15.20;;
73023;SDS011;61199;47.526;8.538;2022-09-25T03:46:39;20.93;;;13.47;;
73023;SDS011;61199;47.526;8.538;2022-09-25T03:49:06;25.47;;;14.53;;
73023;SDS011;61199;47.526;8.538;2022-09-25T03:51:32;29.40;;;16.17;;
73023;SDS011;61199;47.526;8.538;2022-09-25T03:54:00;33.93;;;14.80;;
73023;SDS011;61199;47.526;8.538;2022-09-25T03:56:27;28.80;;;15.77;;
73023;SDS011;61199;47.526;8.538;2022-09-25T03:58:55;36.63;;;15.17;;
73023;SDS011;61199;47.526;8.538;2022-09-25T04:01:22;75.23;;;17.47;;
73023;SDS011;61199;47.526;8.538;2022-09-25T04:03:49;36.37;;;16.30;;
73023;SDS011;61199;47.526;8.538;2022-09-25T04:06:17;30.30;;;15.93;;
73023;SDS011;61199;47.526;8.538;2022-09-25T04:08:46;30.73;;;16.80;;
73023;SDS011;61199;47.526;8.538;2022-09-25T04:11:14;34.60;;;17.20;;
73023;SDS011;61199;47.526;8.538;2022-09-25T04:13:41;32.93;;;17.23;;
73023;SDS011;61199;47.526;8.538;2022-09-25T04:16:10;34.73;;;17.73;;
73023;SDS011;61199;47.526;8.538;2022-09-25T04:18:37;41.63;;;17.80;;
73023;SDS011;61199;47.526;8.538;2022-09-25T04:21:07;31.10;;;17.10;;
73023;SDS011;61199;47.526;8.538;2022-09-25T04:23:35;31.63;;;17.03;;
73023;SDS011;61199;47.526;8.538;2022-09-25T04:26:02;35.00;;;15.00;;
73023;SDS011;61199;47.526;8.538;2022-09-25T04:28:28;29.97;;;15.73;;
73023;SDS011;61199;47.526;8.538;2022-09-25T04:30:56;23.80;;;14.10;;
73023;SDS011;61199;47.526;8.538;2022-09-25T04:33:22;27.30;;;14.93;;
73023;SDS011;61199;47.526;8.538;2022-09-25T04:36:07;36.93;;;16.27;;
73023;SDS011;61199;47.526;8.538;2022-09-25T04:38:34;29.40;;;16.67;;
73023;SDS011;61199;47.526;8.538;2022-09-25T04:41:01;32.13;;;15.30;;
73023;SDS011;61199;47.526;8.538;2022-09-25T04:43:28;28.87;;;15.70;;
73023;SDS011;61199;47.526;8.538;2022-09-25T04:45:54;54.67;;;16.90;;
73023;SDS011;61199;47.526;8.538;2022-09-25T04:48:25;27.80;;;14.70;;
73023;SDS011;61199;47.526;8.538;2022-09-25T04:50:51;29.33;;;15.27;;
73023;SDS011;61199;47.526;8.538;2022-09-25T04:53:17;39.20;;;16.63;;
73023;SDS011;61199;47.526;8.538;2022-09-25T04:55:44;31.20;;;17.13;;
73023;SDS011;61199;47.526;8.538;2022-09-25T04:58:11;26.33;;;14.53;;
73023;SDS011;61199;47.526;8.538;2022-09-25T05:00:37;31.40;;;15.33;;
73023;SDS011;61199;47.526;8.538;2022-09-25T05:03:05;26.63;;;14.33;;
73023;SDS011;61199;47.526;8.538;2022-09-25T05:05:32;31.60;;;16.20;;
73023;SDS011;61199;47.526;8.538;2022-09-25T05:08:00;26.60;;;14.87;;
73023;SDS011;61199;47.526;8.538;2022-09-25T05:10:29;28.53;;;15.73;;
73023;SDS011;61199;47.526;8.538;2022-09-25T05:12:58;39.60;;;15.90;;
73023;SDS011;61199;47.526;8.538;2022-09-25T05:15:26;28.37;;;15.63;;
73023;SDS011;61199;47.526;8.538;2022-09-25T05:18:10;23.77;;;13.47;;
73023;SDS011;61199;47.526;8.538;2022-09-25T05:20:41;30.87;;;15.00;;
73023;SDS011;61199;47.526;8.538;2022-09-25T05:23:07;23.07;;;12.87;;
73023;SDS011;61199;47.526;8.538;2022-09-25T05:25:34;21.40;;;12.47;;
73023;SDS011;61199;47.526;8.538;2022-09-25T05:28:00;22.13;;;12.47;;
73023;SDS011;61199;47.526;8.538;2022-09-25T05:30:28;27.03;;;13.80;;
73023;SDS011;61199;47.526;8.538;2022-09-25T05:32:56;27.97;;;14.67;;
73023;SDS011;61199;47.526;8.538;2022-09-25T05:35:27;22.83;;;12.83;;
73023;SDS011;61199;47.526;8.538;2022-09-25T05:37:55;28.73;;;14.30;;
73023;SDS011;61199;47.526;8.538;2022-09-25T05:40:21;26.70;;;13.60;;
73023;SDS011;61199;47.526;8.538;2022-09-25T05:42:50;22.40;;;13.97;;
73023;SDS011;61199;47.526;8.538;2022-09-25T05:45:18;28.57;;;14.87;;
73023;SDS011;61199;47.526;8.538;2022-09-25T05:47:45;31.10;;;14.60;;
73023;SDS011;61199;47.526;8.538;2022-09-25T05:50:13;22.23;;;12.87;;
73023;SDS011;61199;47.526;8.538;2022-09-25T05:52:41;25.37;;;12.50;;
73023;SDS011;61199;47.526;8.538;2022-09-25T05:55:08;23.80;;;12.73;;
73023;SDS011;61199;47.526;8.538;2022-09-25T05:57:36;21.07;;;12.67;;
73023;SDS011;61199;47.526;8.538;2022-09-25T06:00:03;20.70;;;12.67;;
73023;SDS011;61199;47.526;8.538;2022-09-25T06:02:32;20.93;;;12.10;;
73023;SDS011;61199;47.526;8.538;2022-09-25T06:04:59;27.83;;;14.33;;
73023;SDS011;61199;47.526;8.538;2022-09-25T06:07:25;25.03;;;12.30;;
73023;SDS011;61199;47.526;8.538;2022-09-25T06:09:52;21.33;;;11.87;;
73023;SDS011;61199;47.526;8.538;2022-09-25T06:12:18;22.03;;;12.90;;
73023;SDS011;61199;47.526;8.538;2022-09-25T06:14:44;21.80;;;12.10;;
73023;SDS011;61199;47.526;8.538;2022-09-25T06:17:11;20.97;;;12.07;;
73023;SDS011;61199;47.526;8.538;2022-09-25T06:19:38;25.23;;;13.83;;
73023;SDS011;61199;47.526;8.538;2022-09-25T06:22:05;23.53;;;13.83;;
73023;SDS011;61199;47.526;8.538;2022-09-25T06:24:31;21.83;;;11.77;;
73023;SDS011;61199;47.526;8.538;2022-09-25T06:26:58;20.60;;;11.50;;
73023;SDS011;61199;47.526;8.538;2022-09-25T06:29:24;26.60;;;13.00;;
73023;SDS011;61199;47.526;8.538;2022-09-25T06:31:50;18.47;;;11.37;;
73023;SDS011;61199;47.526;8.538;2022-09-25T06:34:17;21.93;;;11.90;;
73023;SDS011;61199;47.526;8.538;2022-09-25T06:36:44;22.30;;;12.03;;
73023;SDS011;61199;47.526;8.538;2022-09-25T06:39:10;20.50;;;11.20;;
73023;SDS011;61199;47.526;8.538;2022-09-25T06:41:36;23.43;;;12.70;;
73023;SDS011;61199;47.526;8.538;2022-09-25T06:44:03;20.17;;;12.60;;
73023;SDS011;61199;47.526;8.538;2022-09-25T06:46:29;25.03;;;13.50;;
73023;SDS011;61199;47.526;8.538;2022-09-25T06:48:56;19.63;;;11.67;;
73023;SDS011;61199;47.526;8.538;2022-09-25T06:51:23;19.97;;;11.20;;
73023;SDS011;61199;47.526;8.538;2022-09-25T06:53:53;18.13;;;10.67;;
73023;SDS011;61199;47.526;8.538;2022-09-25T06:56:20;23.83;;;13.33;;
73023;SDS011;61199;47.526;8.538;2022-09-25T06:58:47;24.80;;;13.60;;
73023;SDS011;61199;47.526;8.538;2022-09-25T07:01:13;26.20;;;13.20;;
73023;SDS011;61199;47.526;8.538;2022-09-25T07:03:40;25.50;;;13.20;;
73023;SDS011;61199;47.526;8.538;2022-09-25T07:06:10;21.83;;;12.43;;
73023;SDS011;61199;47.526;8.538;2022-09-25T07:08:41;27.97;;;13.27;;
73023;SDS011;61199;47.526;8.538;2022-09-25T07:11:10;25.90;;;13.40;;
73023;SDS011;61199;47.526;8.538;2022-09-25T07:13:42;21.30;;;11.90;;
73023;SDS011;61199;47.526;8.538;2022-09-25T07:16:10;21.97;;;11.70;;
73023;SDS011;61199;47.526;8.538;2022-09-25T07:18:39;21.57;;;11.60;;
73023;SDS011;61199;47.526;8.538;2022-09-25T07:21:07;24.87;;;12.90;;
73023;SDS011;61199;47.526;8.538;2022-09-25T07:23:38;23.73;;;11.67;;
73023;SDS011;61199;47.526;8.538;2022-09-25T07:26:08;21.23;;;11.27;;
73023;SDS011;61199;47.526;8.538;2022-09-25T07:28:39;28.40;;;12.47;;
73023;SDS011;61199;47.526;8.538;2022-09-25T07:31:13;25.03;;;12.60;;
73023;SDS011;61199;47.526;8.538;2022-09-25T07:33:42;27.93;;;13.00;;
73023;SDS011;61199;47.526;8.538;2022-09-25T07:36:09;25.33;;;11.50;;
73023;SDS011;61199;47.526;8.538;2022-09-25T07:38:35;25.17;;;11.80;;
73023;SDS011;61199;47.526;8.538;2022-09-25T07:41:05;22.03;;;10.40;;
73023;SDS011;61199;47.526;8.538;2022-09-25T07:43:35;21.07;;;11.07;;
73023;SDS011;61199;47.526;8.538;2022-09-25T07:46:04;20.87;;;11.90;;
73023;SDS011;61199;47.526;8.538;2022-09-25T07:48:31;21.23;;;11.50;;
73023;SDS011;61199;47.526;8.538;2022-09-25T07:50:58;21.97;;;11.63;;
73023;SDS011;61199;47.526;8.538;2022-09-25T07:53:29;18.77;;;9.10;;
73023;SDS011;61199;47.526;8.538;2022-09-25T07:55:59;18.80;;;9.90;;
73023;SDS011;61199;47.526;8.538;2022-09-25T07:58:32;19.30;;;9.07;;
73023;SDS011;61199;47.526;8.538;2022-09-25T08:01:00;20.33;;;11.13;;
73023;SDS011;61199;47.526;8.538;2022-09-25T08:03:29;20.00;;;10.50;;
73023;SDS011;61199;47.526;8.538;2022-09-25T08:06:02;19.17;;;10.50;;
73023;SDS011;61199;47.526;8.538;2022-09-25T08:08:32;19.30;;;10.20;;
73023;SDS011;61199;47.526;8.538;2022-09-25T08:10:59;21.47;;;10.60;;
73023;SDS011;61199;47.526;8.538;2022-09-25T08:13:34;20.13;;;10.13;;
73023;SDS011;61199;47.526;8.538;2022-09-25T08:16:06;21.63;;;9.50;;
73023;SDS011;61199;47.526;8.538;2022-09-25T08:18:36;17.40;;;9.40;;
73023;SDS011;61199;47.526;8.538;2022-09-25T08:21:03;17.30;;;9.10;;
73023;SDS011;61199;47.526;8.538;2022-09-25T08:23:30;16.50;;;9.60;;
73023;SDS011;61199;47.526;8.538;2022-09-25T08:25:57;15.60;;;8.67;;
73023;SDS011;61199;47.526;8.538;2022-09-25T08:28:24;14.53;;;9.00;;
73023;SDS011;61199;47.526;8.538;2022-09-25T08:30:51;16.47;;;9.80;;
73023;SDS011;61199;47.526;8.538;2022-09-25T08:33:17;15.57;;;8.73;;
73023;SDS011;61199;47.526;8.538;2022-09-25T08:35:53;14.90;;;8.47;;
73023;SDS011;61199;47.526;8.538;2022-09-25T08:38:23;14.53;;;8.17;;
73023;SDS011;61199;47.526;8.538;2022-09-25T08:43:26;15.03;;;8.97;;
73023;SDS011;61199;47.526;8.538;2022-09-25T08:45:53;15.00;;;8.90;;
73023;SDS011;61199;47.526;8.538;2022-09-25T08:48:54;17.57;;;9.57;;
73023;SDS011;61199;47.526;8.538;2022-09-25T08:51:28;21.10;;;9.97;;
73023;SDS011;61199;47.526;8.538;2022-09-25T08:53:56;22.80;;;10.27;;
73023;SDS011;61199;47.526;8.538;2022-09-25T08:56:27;18.87;;;10.00;;
73023;SDS011;61199;47.526;8.538;2022-09-25T09:01:41;20.17;;;10.77;;
73023;SDS011;61199;47.526;8.538;2022-09-25T09:06:50;28.13;;;12.10;;
73023;SDS011;61199;47.526;8.538;2022-09-25T09:09:40;27.27;;;11.60;;
73023;SDS011;61199;47.526;8.538;2022-09-25T09:12:17;21.50;;;11.40;;
73023;SDS011;61199;47.526;8.538;2022-09-25T09:14:50;19.60;;;10.67;;
73023;SDS011;61199;47.526;8.538;2022-09-25T09:17:23;23.00;;;11.67;;
73023;SDS011;61199;47.526;8.538;2022-09-25T09:19:58;26.77;;;12.90;;
73023;SDS011;61199;47.526;8.538;2022-09-25T09:22:39;18.90;;;11.03;;
73023;SDS011;61199;47.526;8.538;2022-09-25T09:33:27;22.73;;;12.20;;
73023;SDS011;61199;47.526;8.538;2022-09-25T09:38:58;24.80;;;12.37;;
73023;SDS011;61199;47.526;8.538;2022-09-25T09:49:44;21.73;;;11.87;;
73023;SDS011;61199;47.526;8.538;2022-09-25T09:52:17;21.37;;;11.10;;
73023;SDS011;61199;47.526;8.538;2022-09-25T09:54:51;22.23;;;12.13;;
73023;SDS011;61199;47.526;8.538;2022-09-25T09:57:24;27.30;;;13.07;;
73023;SDS011;61199;47.526;8.538;2022-09-25T10:02:32;27.90;;;14.70;;
73023;SDS011;61199;47.526;8.538;2022-09-25T10:05:06;24.43;;;13.63;;
73023;SDS011;61199;47.526;8.538;2022-09-25T10:07:45;23.17;;;12.30;;
73023;SDS011;61199;47.526;8.538;2022-09-25T10:10:14;21.07;;;11.53;;
73023;SDS011;61199;47.526;8.538;2022-09-25T10:12:43;21.83;;;12.33;;
73023;SDS011;61199;47.526;8.538;2022-09-25T10:15:15;22.40;;;12.30;;
73023;SDS011;61199;47.526;8.538;2022-09-25T10:17:49;22.17;;;12.60;;
73023;SDS011;61199;47.526;8.538;2022-09-25T10:20:20;21.93;;;13.20;;
73023;SDS011;61199;47.526;8.538;2022-09-25T10:22:49;21.50;;;12.10;;
73023;SDS011;61199;47.526;8.538;2022-09-25T10:25:37;20.70;;;11.60;;
73023;SDS011;61199;47.526;8.538;2022-09-25T10:28:19;17.90;;;10.70;;
73023;SDS011;61199;47.526;8.538;2022-09-25T10:30:46;20.53;;;12.53;;
73023;SDS011;61199;47.526;8.538;2022-09-25T10:33:15;19.33;;;11.30;;
73023;SDS011;61199;47.526;8.538;2022-09-25T10:35:45;22.00;;;11.63;;
73023;SDS011;61199;47.526;8.538;2022-09-25T10:38:59;26.73;;;12.10;;
73023;SDS011;61199;47.526;8.538;2022-09-25T10:41:01;19.53;;;11.73;;
73023;SDS011;61199;47.526;8.538;2022-09-25T10:43:31;16.10;;;10.33;;
73023;SDS011;61199;47.526;8.538;2022-09-25T10:48:35;17.90;;;10.70;;
73023;SDS011;61199;47.526;8.538;2022-09-25T10:51:21;17.13;;;10.43;;
73023;SDS011;61199;47.526;8.538;2022-09-25T10:53:52;20.50;;;11.17;;
73023;SDS011;61199;47.526;8.538;2022-09-25T10:56:36;16.43;;;9.90;;
73023;SDS011;61199;47.526;8.538;2022-09-25T10:59:16;14.27;;;9.10;;
73023;SDS011;61199;47.526;8.538;2022-09-25T11:01:45;14.07;;;9.27;;
73023;SDS011;61199;47.526;8.538;2022-09-25T11:04:16;15.07;;;9.33;;
73023;SDS011;61199;47.526;8.538;2022-09-25T11:06:44;14.97;;;8.80;;
73023;SDS011;61199;47.526;8.538;2022-09-25T11:09:18;15.60;;;9.30;;
73023;SDS011;61199;47.526;8.538;2022-09-25T11:11:48;16.37;;;10.37;;
73023;SDS011;61199;47.526;8.538;2022-09-25T11:14:22;16.13;;;9.73;;
73023;SDS011;61199;47.526;8.538;2022-09-25T11:16:58;13.70;;;7.87;;
73023;SDS011;61199;47.526;8.538;2022-09-25T11:19:27;14.60;;;9.47;;
73023;SDS011;61199;47.526;8.538;2022-09-25T11:21:58;14.60;;;8.40;;
73023;SDS011;61199;47.526;8.538;2022-09-25T11:24:33;11.80;;;8.43;;
73023;SDS011;61199;47.526;8.538;2022-09-25T11:27:09;12.10;;;8.43;;
73023;SDS011;61199;47.526;8.538;2022-09-25T11:29:39;14.53;;;8.60;;
73023;SDS011;61199;47.526;8.538;2022-09-25T11:37:39;12.13;;;8.40;;
73023;SDS011;61199;47.526;8.538;2022-09-25T11:43:04;14.63;;;9.30;;
73023;SDS011;61199;47.526;8.538;2022-09-25T11:45:35;13.40;;;9.27;;
73023;SDS011;61199;47.526;8.538;2022-09-25T11:48:17;13.93;;;9.23;;
73023;SDS011;61199;47.526;8.538;2022-09-25T11:53:56;14.40;;;9.97;;
73023;SDS011;61199;47.526;8.538;2022-09-25T11:57:10;16.40;;;10.30;;
73023;SDS011;61199;47.526;8.538;2022-09-25T12:11:13;61.47;;;27.30;;
73023;SDS011;61199;47.526;8.538;2022-09-25T12:25:30;11.47;;;7.50;;
73023;SDS011;61199;47.526;8.538;2022-09-25T12:28:05;11.60;;;8.40;;
73023;SDS011;61199;47.526;8.538;2022-09-25T12:33:36;11.80;;;8.10;;
73023;SDS011;61199;47.526;8.538;2022-09-25T12:36:45;13.20;;;9.00;;
73023;SDS011;61199;47.526;8.538;2022-09-25T12:39:37;13.20;;;9.20;;
73023;SDS011;61199;47.526;8.538;2022-09-25T12:42:10;13.50;;;8.40;;
73023;SDS011;61199;47.526;8.538;2022-09-25T12:44:55;15.47;;;8.97;;
73023;SDS011;61199;47.526;8.538;2022-09-25T12:47:33;19.33;;;8.80;;
73023;SDS011;61199;47.526;8.538;2022-09-25T12:50:08;11.53;;;8.10;;
73023;SDS011;61199;47.526;8.538;2022-09-25T12:52:48;12.60;;;8.80;;
73023;SDS011;61199;47.526;8.538;2022-09-25T12:55:25;15.40;;;8.63;;
73023;SDS011;61199;47.526;8.538;2022-09-25T13:00:43;13.30;;;9.10;;
73023;SDS011;61199;47.526;8.538;2022-09-25T13:03:19;13.53;;;8.63;;
73023;SDS011;61199;47.526;8.538;2022-09-25T13:06:09;13.67;;;8.70;;
73023;SDS011;61199;47.526;8.538;2022-09-25T13:11:14;16.37;;;8.97;;
73023;SDS011;61199;47.526;8.538;2022-09-25T13:13:49;15.23;;;8.97;;
73023;SDS011;61199;47.526;8.538;2022-09-25T13:16:18;14.60;;;9.00;;
73023;SDS011;61199;47.526;8.538;2022-09-25T13:18:46;12.60;;;8.27;;
73023;SDS011;61199;47.526;8.538;2022-09-25T13:21:24;15.03;;;7.87;;
73023;SDS011;61199;47.526;8.538;2022-09-25T13:23:56;12.57;;;7.60;;
73023;SDS011;61199;47.526;8.538;2022-09-25T13:26:24;14.10;;;8.43;;
73023;SDS011;61199;47.526;8.538;2022-09-25T13:28:56;21.47;;;8.23;;
73023;SDS011;61199;47.526;8.538;2022-09-25T13:31:30;14.50;;;8.20;;
73023;SDS011;61199;47.526;8.538;2022-09-25T13:39:26;8.00;;;5.73;;
73023;SDS011;61199;47.526;8.538;2022-09-25T13:42:23;8.27;;;5.57;;
73023;SDS011;61199;47.526;8.538;2022-09-25T13:44:56;9.30;;;6.37;;
73023;SDS011;61199;47.526;8.538;2022-09-25T14:00:20;8.20;;;5.57;;
73023;SDS011;61199;47.526;8.538;2022-09-25T14:02:48;8.07;;;5.40;;
73023;SDS011;61199;47.526;8.538;2022-09-25T14:05:19;11.13;;;5.97;;
73023;SDS011;61199;47.526;8.538;2022-09-25T14:07:47;10.30;;;6.60;;
73023;SDS011;61199;47.526;8.538;2022-09-25T14:10:19;12.27;;;6.83;;
73023;SDS011;61199;47.526;8.538;2022-09-25T14:12:47;9.43;;;6.77;;
73023;SDS011;61199;47.526;8.538;2022-09-25T14:17:52;12.00;;;7.20;;
73023;SDS011;61199;47.526;8.538;2022-09-25T14:23:10;14.07;;;8.73;;
73023;SDS011;61199;47.526;8.538;2022-09-25T14:25:58;13.80;;;8.37;;
73023;SDS011;61199;47.526;8.538;2022-09-25T14:28:27;13.03;;;8.47;;
73023;SDS011;61199;47.526;8.538;2022-09-25T14:41:44;12.33;;;8.00;;
73023;SDS011;61199;47.526;8.538;2022-09-25T14:47:14;11.67;;;6.37;;
73023;SDS011;61199;47.526;8.538;2022-09-25T14:49:43;8.33;;;6.33;;
73023;SDS011;61199;47.526;8.538;2022-09-25T14:52:14;10.33;;;6.10;;
73023;SDS011;61199;47.526;8.538;2022-09-25T14:54:46;9.43;;;6.10;;
73023;SDS011;61199;47.526;8.538;2022-09-25T14:57:15;13.10;;;6.33;;
73023;SDS011;61199;47.526;8.538;2022-09-25T14:59:51;8.50;;;5.93;;
73023;SDS011;61199;47.526;8.538;2022-09-25T15:02:26;6.93;;;5.20;;
73023;SDS011;61199;47.526;8.538;2022-09-25T15:05:14;8.60;;;6.10;;
73023;SDS011;61199;47.526;8.538;2022-09-25T15:07:55;10.00;;;6.27;;
73023;SDS011;61199;47.526;8.538;2022-09-25T15:10:25;8.90;;;6.10;;
73023;SDS011;61199;47.526;8.538;2022-09-25T15:13:04;9.20;;;5.70;;
73023;SDS011;61199;47.526;8.538;2022-09-25T15:15:33;10.93;;;7.10;;
73023;SDS011;61199;47.526;8.538;2022-09-25T15:18:00;9.93;;;7.17;;
73023;SDS011;61199;47.526;8.538;2022-09-25T15:20:28;10.57;;;5.70;;
73023;SDS011;61199;47.526;8.538;2022-09-25T15:23:01;9.20;;;6.10;;
73023;SDS011;61199;47.526;8.538;2022-09-25T15:25:32;11.67;;;7.43;;
73023;SDS011;61199;47.526;8.538;2022-09-25T15:28:05;14.33;;;7.10;;
73023;SDS011;61199;47.526;8.538;2022-09-25T15:30:34;10.97;;;7.30;;
73023;SDS011;61199;47.526;8.538;2022-09-25T15:33:02;9.80;;;6.37;;
73023;SDS011;61199;47.526;8.538;2022-09-25T15:35:28;10.13;;;7.20;;
73023;SDS011;61199;47.526;8.538;2022-09-25T15:38:11;12.10;;;7.50;;
73023;SDS011;61199;47.526;8.538;2022-09-25T15:40:39;12.67;;;7.63;;
73023;SDS011;61199;47.526;8.538;2022-09-25T15:43:11;11.47;;;7.60;;
73023;SDS011;61199;47.526;8.538;2022-09-25T15:53:56;10.03;;;6.87;;
73023;SDS011;61199;47.526;8.538;2022-09-25T15:56:25;11.57;;;6.67;;
73023;SDS011;61199;47.526;8.538;2022-09-25T15:59:17;12.40;;;7.43;;
73023;SDS011;61199;47.526;8.538;2022-09-25T16:01:48;11.43;;;6.53;;
73023;SDS011;61199;47.526;8.538;2022-09-25T16:04:38;13.50;;;7.10;;
73023;SDS011;61199;47.526;8.538;2022-09-25T16:07:22;9.30;;;6.23;;
73023;SDS011;61199;47.526;8.538;2022-09-25T16:09:50;11.30;;;7.20;;
73023;SDS011;61199;47.526;8.538;2022-09-25T16:12:25;10.43;;;7.43;;
73023;SDS011;61199;47.526;8.538;2022-09-25T16:15:01;11.63;;;7.57;;
73023;SDS011;61199;47.526;8.538;2022-09-25T16:17:51;15.17;;;8.47;;
73023;SDS011;61199;47.526;8.538;2022-09-25T16:20:30;11.47;;;7.90;;
73023;SDS011;61199;47.526;8.538;2022-09-25T16:22:58;13.03;;;8.37;;
73023;SDS011;61199;47.526;8.538;2022-09-25T16:25:31;14.87;;;8.53;;
73023;SDS011;61199;47.526;8.538;2022-09-25T16:28:21;16.97;;;9.83;;
73023;SDS011;61199;47.526;8.538;2022-09-25T16:30:57;18.77;;;10.80;;
73023;SDS011;61199;47.526;8.538;2022-09-25T16:36:00;15.27;;;10.07;;
73023;SDS011;61199;47.526;8.538;2022-09-25T16:38:43;21.47;;;10.97;;
73023;SDS011;61199;47.526;8.538;2022-09-25T16:41:29;27.43;;;11.77;;
73023;SDS011;61199;47.526;8.538;2022-09-25T16:44:04;15.60;;;10.50;;
73023;SDS011;61199;47.526;8.538;2022-09-25T16:46:37;14.10;;;9.50;;
73023;SDS011;61199;47.526;8.538;2022-09-25T16:49:05;13.83;;;9.70;;
73023;SDS011;61199;47.526;8.538;2022-09-25T16:51:32;15.30;;;8.77;;
73023;SDS011;61199;47.526;8.538;2022-09-25T16:53:59;14.33;;;8.57;;
73023;SDS011;61199;47.526;8.538;2022-09-25T16:56:28;14.63;;;8.40;;
73023;SDS011;61199;47.526;8.538;2022-09-25T16:58:56;13.03;;;8.40;;
73023;SDS011;61199;47.526;8.538;2022-09-25T17:01:25;13.37;;;8.33;;
73023;SDS011;61199;47.526;8.538;2022-09-25T17:03:53;11.97;;;8.00;;
73023;SDS011;61199;47.526;8.538;2022-09-25T17:06:25;15.17;;;9.03;;
73023;SDS011;61199;47.526;8.538;2022-09-25T17:08:52;12.20;;;8.03;;
73023;SDS011;61199;47.526;8.538;2022-09-25T17:11:19;14.80;;;8.50;;
73023;SDS011;61199;47.526;8.538;2022-09-25T17:13:47;12.60;;;7.80;;
73023;SDS011;61199;47.526;8.538;2022-09-25T17:16:13;13.13;;;8.60;;
73023;SDS011;61199;47.526;8.538;2022-09-25T17:18:40;14.93;;;8.87;;
73023;SDS011;61199;47.526;8.538;2022-09-25T17:21:12;12.87;;;8.53;;